sensor_id;sensor_type;location;lat;lon;timestamp;P1;durP1;ratioP1;P2;durP2;ratioP2
41883;SDS011;27566;50.930;5.328;2024-02-04T00:01:04;17.60;;;9.25;;
41883;SDS011;27566;50.930;5.328;2024-02-04T00:03:29;14.13;;;8.88;;
41883;SDS011;27566;50.930;5.328;2024-02-04T00:05:55;19.63;;;10.18;;
41883;SDS011;27566;50.930;5.328;2024-02-04T00:08:21;17.67;;;9.60;;
41883;SDS011;27566;50.930;5.328;2024-02-04T00:10:47;18.70;;;9.77;;
41883;SDS011;27566;50.930;5.328;2024-02-04T00:13:13;17.95;;;9.95;;
41883;SDS011;27566;50.930;5.328;2024-02-04T00:15:39;21.17;;;9.43;;
41883;SDS011;27566;50.930;5.328;2024-02-04T00:18:05;18.17;;;9.50;;
41883;SDS011;27566;50.930;5.328;2024-02-04T00:20:31;16.15;;;8.90;;
41883;SDS011;27566;50.930;5.328;2024-02-04T00:22:58;15.02;;;9.55;;
41883;SDS011;27566;50.930;5.328;2024-02-04T00:25:24;16.60;;;9.13;;
41883;SDS011;27566;50.930;5.328;2024-02-04T00:27:50;15.02;;;8.15;;
41883;SDS011;27566;50.930;5.328;2024-02-04T00:30:16;14.75;;;8.55;;
41883;SDS011;27566;50.930;5.328;2024-02-04T00:32:41;13.80;;;9.27;;
41883;SDS011;27566;50.930;5.328;2024-02-04T00:35:07;12.52;;;7.53;;
41883;SDS011;27566;50.930;5.328;2024-02-04T00:37:33;15.50;;;9.35;;
41883;SDS011;27566;50.930;5.328;2024-02-04T00:39:59;15.18;;;8.55;;
41883;SDS011;27566;50.930;5.328;2024-02-04T00:42:25;15.68;;;9.18;;
41883;SDS011;27566;50.930;5.328;2024-02-04T00:44:51;13.98;;;8.00;;
41883;SDS011;27566;50.930;5.328;2024-02-04T00:47:17;14.02;;;7.95;;
41883;SDS011;27566;50.930;5.328;2024-02-04T00:49:43;14.13;;;8.50;;
41883;SDS011;27566;50.930;5.328;2024-02-04T00:52:09;16.83;;;8.98;;
41883;SDS011;27566;50.930;5.328;2024-02-04T00:54:35;17.23;;;8.20;;
41883;SDS011;27566;50.930;5.328;2024-02-04T00:57:01;16.73;;;8.38;;
41883;SDS011;27566;50.930;5.328;2024-02-04T00:59:27;13.48;;;7.82;;
41883;SDS011;27566;50.930;5.328;2024-02-04T01:01:52;15.70;;;8.23;;
41883;SDS011;27566;50.930;5.328;2024-02-04T01:04:20;14.65;;;7.93;;
41883;SDS011;27566;50.930;5.328;2024-02-04T01:06:48;16.55;;;9.10;;
41883;SDS011;27566;50.930;5.328;2024-02-04T01:09:14;15.25;;;8.63;;
41883;SDS011;27566;50.930;5.328;2024-02-04T01:11:40;14.90;;;7.47;;
41883;SDS011;27566;50.930;5.328;2024-02-04T01:14:06;14.93;;;8.48;;
41883;SDS011;27566;50.930;5.328;2024-02-04T01:16:32;16.00;;;7.45;;
41883;SDS011;27566;50.930;5.328;2024-02-04T01:18:58;11.93;;;6.35;;
41883;SDS011;27566;50.930;5.328;2024-02-04T01:21:23;14.10;;;7.55;;
41883;SDS011;27566;50.930;5.328;2024-02-04T01:23:50;13.27;;;7.38;;
41883;SDS011;27566;50.930;5.328;2024-02-04T01:26:16;14.70;;;7.03;;
41883;SDS011;27566;50.930;5.328;2024-02-04T01:28:42;10.40;;;6.47;;
41883;SDS011;27566;50.930;5.328;2024-02-04T01:31:08;10.48;;;6.40;;
41883;SDS011;27566;50.930;5.328;2024-02-04T01:33:34;11.57;;;6.28;;
41883;SDS011;27566;50.930;5.328;2024-02-04T01:36:00;11.27;;;6.20;;
41883;SDS011;27566;50.930;5.328;2024-02-04T01:38:26;12.73;;;6.07;;
41883;SDS011;27566;50.930;5.328;2024-02-04T01:40:52;10.45;;;6.88;;
41883;SDS011;27566;50.930;5.328;2024-02-04T01:43:19;12.93;;;6.20;;
41883;SDS011;27566;50.930;5.328;2024-02-04T01:45:46;10.13;;;6.22;;
41883;SDS011;27566;50.930;5.328;2024-02-04T01:48:14;11.27;;;5.95;;
41883;SDS011;27566;50.930;5.328;2024-02-04T01:50:40;12.18;;;5.82;;
41883;SDS011;27566;50.930;5.328;2024-02-04T01:53:07;11.55;;;6.40;;
41883;SDS011;27566;50.930;5.328;2024-02-04T01:55:34;13.25;;;6.03;;
41883;SDS011;27566;50.930;5.328;2024-02-04T01:58:00;10.32;;;5.13;;
41883;SDS011;27566;50.930;5.328;2024-02-04T02:00:27;10.10;;;6.00;;
41883;SDS011;27566;50.930;5.328;2024-02-04T02:02:53;10.13;;;5.35;;
41883;SDS011;27566;50.930;5.328;2024-02-04T02:05:19;9.90;;;5.00;;
41883;SDS011;27566;50.930;5.328;2024-02-04T02:07:45;10.80;;;5.22;;
41883;SDS011;27566;50.930;5.328;2024-02-04T02:10:13;9.52;;;5.40;;
41883;SDS011;27566;50.930;5.328;2024-02-04T02:15:30;10.73;;;5.68;;
41883;SDS011;27566;50.930;5.328;2024-02-04T02:18:02;9.60;;;5.10;;
41883;SDS011;27566;50.930;5.328;2024-02-04T02:23:48;7.95;;;4.47;;
41883;SDS011;27566;50.930;5.328;2024-02-04T02:26:39;10.10;;;5.00;;
41883;SDS011;27566;50.930;5.328;2024-02-04T02:29:06;8.40;;;5.20;;
41883;SDS011;27566;50.930;5.328;2024-02-04T02:31:37;9.85;;;5.15;;
41883;SDS011;27566;50.930;5.328;2024-02-04T02:34:04;9.70;;;5.38;;
41883;SDS011;27566;50.930;5.328;2024-02-04T02:36:33;9.82;;;5.22;;
41883;SDS011;27566;50.930;5.328;2024-02-04T02:39:21;11.18;;;5.55;;
41883;SDS011;27566;50.930;5.328;2024-02-04T02:41:57;10.05;;;4.72;;
41883;SDS011;27566;50.930;5.328;2024-02-04T02:44:26;13.93;;;4.95;;
41883;SDS011;27566;50.930;5.328;2024-02-04T02:46:57;11.52;;;5.18;;
41883;SDS011;27566;50.930;5.328;2024-02-04T02:49:24;9.05;;;4.97;;
41883;SDS011;27566;50.930;5.328;2024-02-04T02:51:50;10.23;;;5.10;;
41883;SDS011;27566;50.930;5.328;2024-02-04T02:54:16;9.98;;;4.75;;
41883;SDS011;27566;50.930;5.328;2024-02-04T02:56:51;10.10;;;4.85;;
41883;SDS011;27566;50.930;5.328;2024-02-04T02:59:17;9.82;;;4.57;;
41883;SDS011;27566;50.930;5.328;2024-02-04T03:01:43;10.85;;;5.13;;
41883;SDS011;27566;50.930;5.328;2024-02-04T03:04:09;10.90;;;5.28;;
41883;SDS011;27566;50.930;5.328;2024-02-04T03:06:35;8.85;;;5.18;;
41883;SDS011;27566;50.930;5.328;2024-02-04T03:09:01;10.38;;;5.03;;
41883;SDS011;27566;50.930;5.328;2024-02-04T03:11:27;12.93;;;5.53;;
41883;SDS011;27566;50.930;5.328;2024-02-04T03:13:53;11.70;;;5.60;;
41883;SDS011;27566;50.930;5.328;2024-02-04T03:16:19;11.00;;;5.82;;
41883;SDS011;27566;50.930;5.328;2024-02-04T03:18:45;10.80;;;5.13;;
41883;SDS011;27566;50.930;5.328;2024-02-04T03:21:12;9.80;;;5.22;;
41883;SDS011;27566;50.930;5.328;2024-02-04T03:23:38;15.27;;;6.82;;
41883;SDS011;27566;50.930;5.328;2024-02-04T03:26:05;12.23;;;6.15;;
41883;SDS011;27566;50.930;5.328;2024-02-04T03:28:31;10.25;;;5.88;;
41883;SDS011;27566;50.930;5.328;2024-02-04T03:30:57;11.20;;;6.28;;
41883;SDS011;27566;50.930;5.328;2024-02-04T03:33:23;11.73;;;5.95;;
41883;SDS011;27566;50.930;5.328;2024-02-04T03:35:49;9.68;;;4.78;;
41883;SDS011;27566;50.930;5.328;2024-02-04T03:38:15;11.82;;;5.35;;
41883;SDS011;27566;50.930;5.328;2024-02-04T03:40:41;10.82;;;5.43;;
41883;SDS011;27566;50.930;5.328;2024-02-04T03:43:08;13.80;;;6.47;;
41883;SDS011;27566;50.930;5.328;2024-02-04T03:45:37;13.20;;;6.38;;
41883;SDS011;27566;50.930;5.328;2024-02-04T03:48:03;14.48;;;7.65;;
41883;SDS011;27566;50.930;5.328;2024-02-04T03:50:29;10.38;;;5.15;;
41883;SDS011;27566;50.930;5.328;2024-02-04T03:52:55;14.18;;;6.57;;
41883;SDS011;27566;50.930;5.328;2024-02-04T03:55:21;15.38;;;6.15;;
41883;SDS011;27566;50.930;5.328;2024-02-04T03:57:47;16.45;;;7.70;;
41883;SDS011;27566;50.930;5.328;2024-02-04T04:00:13;12.82;;;6.65;;
41883;SDS011;27566;50.930;5.328;2024-02-04T04:02:40;12.95;;;7.45;;
41883;SDS011;27566;50.930;5.328;2024-02-04T04:05:09;11.60;;;5.82;;
41883;SDS011;27566;50.930;5.328;2024-02-04T04:07:38;11.90;;;6.57;;
41883;SDS011;27566;50.930;5.328;2024-02-04T04:10:05;13.05;;;6.97;;
41883;SDS011;27566;50.930;5.328;2024-02-04T04:12:31;12.70;;;5.88;;
41883;SDS011;27566;50.930;5.328;2024-02-04T04:14:57;11.38;;;6.43;;
41883;SDS011;27566;50.930;5.328;2024-02-04T04:17:23;8.95;;;5.57;;
41883;SDS011;27566;50.930;5.328;2024-02-04T04:19:48;12.75;;;6.10;;
41883;SDS011;27566;50.930;5.328;2024-02-04T04:22:14;17.45;;;7.43;;
41883;SDS011;27566;50.930;5.328;2024-02-04T04:24:41;13.18;;;5.90;;
41883;SDS011;27566;50.930;5.328;2024-02-04T04:27:06;12.45;;;5.95;;
41883;SDS011;27566;50.930;5.328;2024-02-04T04:29:32;11.80;;;7.22;;
41883;SDS011;27566;50.930;5.328;2024-02-04T04:31:59;10.27;;;5.32;;
41883;SDS011;27566;50.930;5.328;2024-02-04T04:34:25;13.52;;;6.93;;
41883;SDS011;27566;50.930;5.328;2024-02-04T04:36:51;12.15;;;6.00;;
41883;SDS011;27566;50.930;5.328;2024-02-04T04:39:17;19.88;;;7.47;;
41883;SDS011;27566;50.930;5.328;2024-02-04T04:41:43;11.35;;;5.95;;
41883;SDS011;27566;50.930;5.328;2024-02-04T04:44:10;12.13;;;5.72;;
41883;SDS011;27566;50.930;5.328;2024-02-04T04:46:39;12.57;;;6.30;;
41883;SDS011;27566;50.930;5.328;2024-02-04T04:49:05;13.95;;;6.28;;
41883;SDS011;27566;50.930;5.328;2024-02-04T04:51:31;12.88;;;6.93;;
41883;SDS011;27566;50.930;5.328;2024-02-04T04:53:57;14.38;;;6.57;;
41883;SDS011;27566;50.930;5.328;2024-02-04T04:56:23;12.68;;;6.50;;
41883;SDS011;27566;50.930;5.328;2024-02-04T04:58:49;14.45;;;5.70;;
41883;SDS011;27566;50.930;5.328;2024-02-04T05:01:15;13.57;;;6.38;;
41883;SDS011;27566;50.930;5.328;2024-02-04T05:03:42;11.38;;;6.35;;
41883;SDS011;27566;50.930;5.328;2024-02-04T05:06:08;12.70;;;7.72;;
41883;SDS011;27566;50.930;5.328;2024-02-04T05:08:34;13.93;;;7.07;;
41883;SDS011;27566;50.930;5.328;2024-02-04T05:11:00;17.95;;;7.53;;
41883;SDS011;27566;50.930;5.328;2024-02-04T05:13:26;15.75;;;5.47;;
41883;SDS011;27566;50.930;5.328;2024-02-04T05:15:52;12.50;;;6.88;;
41883;SDS011;27566;50.930;5.328;2024-02-04T05:18:18;13.07;;;6.47;;
41883;SDS011;27566;50.930;5.328;2024-02-04T05:20:44;12.98;;;6.55;;
41883;SDS011;27566;50.930;5.328;2024-02-04T05:23:10;17.40;;;7.95;;
41883;SDS011;27566;50.930;5.328;2024-02-04T05:25:37;15.63;;;6.93;;
41883;SDS011;27566;50.930;5.328;2024-02-04T05:28:02;12.95;;;7.10;;
41883;SDS011;27566;50.930;5.328;2024-02-04T05:30:28;12.85;;;6.38;;
41883;SDS011;27566;50.930;5.328;2024-02-04T05:32:54;10.82;;;6.28;;
41883;SDS011;27566;50.930;5.328;2024-02-04T05:35:20;15.55;;;6.00;;
41883;SDS011;27566;50.930;5.328;2024-02-04T05:37:46;10.25;;;5.65;;
41883;SDS011;27566;50.930;5.328;2024-02-04T05:40:13;13.45;;;5.40;;
41883;SDS011;27566;50.930;5.328;2024-02-04T05:42:42;13.07;;;6.63;;
41883;SDS011;27566;50.930;5.328;2024-02-04T05:45:08;11.18;;;6.32;;
41883;SDS011;27566;50.930;5.328;2024-02-04T05:47:34;12.43;;;6.85;;
41883;SDS011;27566;50.930;5.328;2024-02-04T05:50:00;13.02;;;5.85;;
41883;SDS011;27566;50.930;5.328;2024-02-04T05:52:25;12.73;;;6.22;;
41883;SDS011;27566;50.930;5.328;2024-02-04T05:54:51;12.68;;;7.30;;
41883;SDS011;27566;50.930;5.328;2024-02-04T05:57:17;17.27;;;7.55;;
41883;SDS011;27566;50.930;5.328;2024-02-04T05:59:45;11.32;;;5.20;;
41883;SDS011;27566;50.930;5.328;2024-02-04T06:02:13;10.25;;;5.80;;
41883;SDS011;27566;50.930;5.328;2024-02-04T06:04:39;15.20;;;5.82;;
41883;SDS011;27566;50.930;5.328;2024-02-04T06:07:05;13.00;;;5.65;;
41883;SDS011;27566;50.930;5.328;2024-02-04T06:09:34;11.77;;;5.07;;
41883;SDS011;27566;50.930;5.328;2024-02-04T06:12:00;10.55;;;5.40;;
41883;SDS011;27566;50.930;5.328;2024-02-04T06:14:27;8.60;;;4.60;;
41883;SDS011;27566;50.930;5.328;2024-02-04T06:16:53;10.57;;;5.35;;
41883;SDS011;27566;50.930;5.328;2024-02-04T06:19:19;8.88;;;5.18;;
41883;SDS011;27566;50.930;5.328;2024-02-04T06:21:45;10.30;;;5.35;;
41883;SDS011;27566;50.930;5.328;2024-02-04T06:24:11;13.02;;;4.35;;
41883;SDS011;27566;50.930;5.328;2024-02-04T06:26:38;10.18;;;5.30;;
41883;SDS011;27566;50.930;5.328;2024-02-04T06:29:04;10.35;;;4.70;;
41883;SDS011;27566;50.930;5.328;2024-02-04T06:31:30;9.18;;;4.72;;
41883;SDS011;27566;50.930;5.328;2024-02-04T06:33:56;13.10;;;6.80;;
41883;SDS011;27566;50.930;5.328;2024-02-04T06:36:22;15.43;;;5.00;;
41883;SDS011;27566;50.930;5.328;2024-02-04T06:38:48;10.10;;;5.72;;
41883;SDS011;27566;50.930;5.328;2024-02-04T06:41:14;11.80;;;5.32;;
41883;SDS011;27566;50.930;5.328;2024-02-04T06:43:40;10.80;;;5.90;;
41883;SDS011;27566;50.930;5.328;2024-02-04T06:46:06;11.23;;;6.65;;
41883;SDS011;27566;50.930;5.328;2024-02-04T06:48:32;13.55;;;6.88;;
41883;SDS011;27566;50.930;5.328;2024-02-04T06:50:58;15.90;;;7.03;;
41883;SDS011;27566;50.930;5.328;2024-02-04T06:53:24;9.27;;;5.03;;
41883;SDS011;27566;50.930;5.328;2024-02-04T06:55:50;11.10;;;5.05;;
41883;SDS011;27566;50.930;5.328;2024-02-04T06:58:17;12.25;;;6.35;;
41883;SDS011;27566;50.930;5.328;2024-02-04T07:00:43;13.35;;;5.32;;
41883;SDS011;27566;50.930;5.328;2024-02-04T07:03:09;10.27;;;5.05;;
41883;SDS011;27566;50.930;5.328;2024-02-04T07:05:35;12.70;;;6.32;;
41883;SDS011;27566;50.930;5.328;2024-02-04T07:08:01;14.40;;;6.90;;
41883;SDS011;27566;50.930;5.328;2024-02-04T07:10:27;13.32;;;5.43;;
41883;SDS011;27566;50.930;5.328;2024-02-04T07:12:53;13.35;;;5.93;;
41883;SDS011;27566;50.930;5.328;2024-02-04T07:15:19;14.23;;;6.55;;
41883;SDS011;27566;50.930;5.328;2024-02-04T07:17:45;12.20;;;6.00;;
41883;SDS011;27566;50.930;5.328;2024-02-04T07:20:11;12.15;;;6.90;;
41883;SDS011;27566;50.930;5.328;2024-02-04T07:22:37;11.57;;;6.38;;
41883;SDS011;27566;50.930;5.328;2024-02-04T07:25:03;22.63;;;6.32;;
41883;SDS011;27566;50.930;5.328;2024-02-04T07:27:29;13.18;;;6.75;;
41883;SDS011;27566;50.930;5.328;2024-02-04T07:29:56;14.23;;;7.50;;
41883;SDS011;27566;50.930;5.328;2024-02-04T07:32:23;16.65;;;6.90;;
41883;SDS011;27566;50.930;5.328;2024-02-04T07:34:49;15.13;;;6.50;;
41883;SDS011;27566;50.930;5.328;2024-02-04T07:37:15;12.38;;;6.05;;
41883;SDS011;27566;50.930;5.328;2024-02-04T07:39:42;14.18;;;7.82;;
41883;SDS011;27566;50.930;5.328;2024-02-04T07:42:08;13.07;;;6.30;;
41883;SDS011;27566;50.930;5.328;2024-02-04T07:44:34;11.00;;;5.10;;
41883;SDS011;27566;50.930;5.328;2024-02-04T07:47:00;11.45;;;5.47;;
41883;SDS011;27566;50.930;5.328;2024-02-04T07:49:26;20.25;;;5.65;;
41883;SDS011;27566;50.930;5.328;2024-02-04T07:51:52;13.95;;;5.70;;
41883;SDS011;27566;50.930;5.328;2024-02-04T07:54:18;10.88;;;6.65;;
41883;SDS011;27566;50.930;5.328;2024-02-04T07:56:44;14.25;;;5.30;;
41883;SDS011;27566;50.930;5.328;2024-02-04T07:59:10;9.35;;;4.75;;
41883;SDS011;27566;50.930;5.328;2024-02-04T08:01:36;17.20;;;6.07;;
41883;SDS011;27566;50.930;5.328;2024-02-04T08:04:02;12.93;;;6.20;;
41883;SDS011;27566;50.930;5.328;2024-02-04T08:06:30;11.43;;;4.78;;
41883;SDS011;27566;50.930;5.328;2024-02-04T08:08:59;11.25;;;4.80;;
41883;SDS011;27566;50.930;5.328;2024-02-04T08:11:25;13.18;;;4.80;;
41883;SDS011;27566;50.930;5.328;2024-02-04T08:13:51;11.75;;;5.22;;
41883;SDS011;27566;50.930;5.328;2024-02-04T08:16:17;13.00;;;5.95;;
41883;SDS011;27566;50.930;5.328;2024-02-04T08:18:43;20.80;;;6.05;;
41883;SDS011;27566;50.930;5.328;2024-02-04T08:21:09;13.45;;;4.85;;
41883;SDS011;27566;50.930;5.328;2024-02-04T08:23:35;16.58;;;5.68;;
41883;SDS011;27566;50.930;5.328;2024-02-04T08:26:00;12.30;;;5.32;;
41883;SDS011;27566;50.930;5.328;2024-02-04T08:28:27;11.75;;;5.65;;
41883;SDS011;27566;50.930;5.328;2024-02-04T08:30:54;13.68;;;5.80;;
41883;SDS011;27566;50.930;5.328;2024-02-04T08:33:21;12.95;;;5.22;;
41883;SDS011;27566;50.930;5.328;2024-02-04T08:35:47;13.30;;;4.32;;
41883;SDS011;27566;50.930;5.328;2024-02-04T08:38:14;13.88;;;7.20;;
41883;SDS011;27566;50.930;5.328;2024-02-04T08:40:40;14.30;;;5.90;;
41883;SDS011;27566;50.930;5.328;2024-02-04T08:43:06;11.07;;;5.63;;
41883;SDS011;27566;50.930;5.328;2024-02-04T08:45:32;12.13;;;5.63;;
41883;SDS011;27566;50.930;5.328;2024-02-04T08:47:58;12.38;;;6.47;;
41883;SDS011;27566;50.930;5.328;2024-02-04T08:50:24;13.45;;;7.10;;
41883;SDS011;27566;50.930;5.328;2024-02-04T08:52:50;13.65;;;6.72;;
41883;SDS011;27566;50.930;5.328;2024-02-04T08:55:16;17.83;;;6.57;;
41883;SDS011;27566;50.930;5.328;2024-02-04T08:57:43;19.05;;;7.25;;
41883;SDS011;27566;50.930;5.328;2024-02-04T09:00:10;16.23;;;7.75;;
41883;SDS011;27566;50.930;5.328;2024-02-04T09:02:37;20.73;;;8.13;;
41883;SDS011;27566;50.930;5.328;2024-02-04T09:05:03;12.98;;;6.60;;
41883;SDS011;27566;50.930;5.328;2024-02-04T09:07:30;12.85;;;5.90;;
41883;SDS011;27566;50.930;5.328;2024-02-04T09:09:56;12.82;;;5.47;;
41883;SDS011;27566;50.930;5.328;2024-02-04T09:12:22;18.58;;;6.97;;
41883;SDS011;27566;50.930;5.328;2024-02-04T09:14:48;13.05;;;6.25;;
41883;SDS011;27566;50.930;5.328;2024-02-04T09:17:14;14.48;;;5.35;;
41883;SDS011;27566;50.930;5.328;2024-02-04T09:19:41;13.20;;;6.45;;
41883;SDS011;27566;50.930;5.328;2024-02-04T09:22:06;14.43;;;6.13;;
41883;SDS011;27566;50.930;5.328;2024-02-04T09:24:33;10.25;;;5.85;;
41883;SDS011;27566;50.930;5.328;2024-02-04T09:26:59;10.43;;;5.78;;
41883;SDS011;27566;50.930;5.328;2024-02-04T09:29:25;12.48;;;5.82;;
41883;SDS011;27566;50.930;5.328;2024-02-04T09:31:51;10.68;;;6.15;;
41883;SDS011;27566;50.930;5.328;2024-02-04T09:34:19;9.77;;;5.30;;
41883;SDS011;27566;50.930;5.328;2024-02-04T09:36:45;10.07;;;5.50;;
41883;SDS011;27566;50.930;5.328;2024-02-04T09:39:11;10.40;;;4.43;;
41883;SDS011;27566;50.930;5.328;2024-02-04T09:41:37;8.30;;;4.25;;
41883;SDS011;27566;50.930;5.328;2024-02-04T09:44:03;9.07;;;4.80;;
41883;SDS011;27566;50.930;5.328;2024-02-04T09:46:31;10.40;;;6.18;;
41883;SDS011;27566;50.930;5.328;2024-02-04T09:48:57;14.60;;;7.13;;
41883;SDS011;27566;50.930;5.328;2024-02-04T09:51:25;10.80;;;5.28;;
41883;SDS011;27566;50.930;5.328;2024-02-04T09:53:52;9.60;;;5.32;;
41883;SDS011;27566;50.930;5.328;2024-02-04T09:56:19;10.70;;;4.28;;
41883;SDS011;27566;50.930;5.328;2024-02-04T09:58:49;12.32;;;4.68;;
41883;SDS011;27566;50.930;5.328;2024-02-04T10:01:18;10.30;;;4.57;;
41883;SDS011;27566;50.930;5.328;2024-02-04T10:03:47;12.48;;;6.63;;
41883;SDS011;27566;50.930;5.328;2024-02-04T10:06:13;10.05;;;5.32;;
41883;SDS011;27566;50.930;5.328;2024-02-04T10:08:39;10.43;;;5.40;;
41883;SDS011;27566;50.930;5.328;2024-02-04T10:11:05;9.35;;;4.53;;
41883;SDS011;27566;50.930;5.328;2024-02-04T10:13:41;8.25;;;4.78;;
41883;SDS011;27566;50.930;5.328;2024-02-04T10:16:15;14.93;;;4.85;;
41883;SDS011;27566;50.930;5.328;2024-02-04T10:18:45;9.77;;;3.97;;
41883;SDS011;27566;50.930;5.328;2024-02-04T10:21:20;11.52;;;5.07;;
41883;SDS011;27566;50.930;5.328;2024-02-04T10:23:48;12.77;;;5.22;;
41883;SDS011;27566;50.930;5.328;2024-02-04T10:26:15;9.65;;;4.03;;
41883;SDS011;27566;50.930;5.328;2024-02-04T10:28:41;11.45;;;3.97;;
41883;SDS011;27566;50.930;5.328;2024-02-04T10:31:09;8.80;;;3.90;;
41883;SDS011;27566;50.930;5.328;2024-02-04T10:33:36;6.70;;;3.75;;
41883;SDS011;27566;50.930;5.328;2024-02-04T10:36:02;9.15;;;3.22;;
41883;SDS011;27566;50.930;5.328;2024-02-04T10:38:29;6.32;;;2.80;;
41883;SDS011;27566;50.930;5.328;2024-02-04T10:40:55;6.15;;;3.03;;
41883;SDS011;27566;50.930;5.328;2024-02-04T10:43:32;10.25;;;4.80;;
41883;SDS011;27566;50.930;5.328;2024-02-04T10:46:18;7.00;;;3.78;;
41883;SDS011;27566;50.930;5.328;2024-02-04T10:48:45;9.88;;;3.83;;
41883;SDS011;27566;50.930;5.328;2024-02-04T10:51:21;6.95;;;3.35;;
41883;SDS011;27566;50.930;5.328;2024-02-04T10:53:51;6.55;;;3.28;;
41883;SDS011;27566;50.930;5.328;2024-02-04T10:56:33;6.95;;;2.97;;
41883;SDS011;27566;50.930;5.328;2024-02-04T10:59:00;6.55;;;3.05;;
41883;SDS011;27566;50.930;5.328;2024-02-04T11:01:28;4.85;;;2.80;;
41883;SDS011;27566;50.930;5.328;2024-02-04T11:03:54;5.53;;;2.92;;
41883;SDS011;27566;50.930;5.328;2024-02-04T11:06:21;6.97;;;3.33;;
41883;SDS011;27566;50.930;5.328;2024-02-04T11:08:48;6.05;;;2.97;;
41883;SDS011;27566;50.930;5.328;2024-02-04T11:11:17;6.10;;;2.47;;
41883;SDS011;27566;50.930;5.328;2024-02-04T11:13:49;9.38;;;3.55;;
41883;SDS011;27566;50.930;5.328;2024-02-04T11:27:41;7.40;;;3.10;;
41883;SDS011;27566;50.930;5.328;2024-02-04T11:30:07;6.63;;;3.80;;
41883;SDS011;27566;50.930;5.328;2024-02-04T11:32:35;9.20;;;3.60;;
41883;SDS011;27566;50.930;5.328;2024-02-04T11:35:01;8.02;;;4.15;;
41883;SDS011;27566;50.930;5.328;2024-02-04T11:37:28;7.53;;;3.40;;
41883;SDS011;27566;50.930;5.328;2024-02-04T11:39:54;8.13;;;2.95;;
41883;SDS011;27566;50.930;5.328;2024-02-04T11:42:22;7.10;;;3.05;;
41883;SDS011;27566;50.930;5.328;2024-02-04T11:44:49;9.85;;;4.60;;
41883;SDS011;27566;50.930;5.328;2024-02-04T11:47:22;8.70;;;4.10;;
41883;SDS011;27566;50.930;5.328;2024-02-04T11:49:58;8.90;;;3.30;;
41883;SDS011;27566;50.930;5.328;2024-02-04T11:52:27;6.43;;;3.35;;
41883;SDS011;27566;50.930;5.328;2024-02-04T11:54:53;7.97;;;3.53;;
41883;SDS011;27566;50.930;5.328;2024-02-04T11:57:20;7.40;;;3.45;;
41883;SDS011;27566;50.930;5.328;2024-02-04T11:59:46;5.93;;;3.15;;
41883;SDS011;27566;50.930;5.328;2024-02-04T12:02:15;7.38;;;3.47;;
41883;SDS011;27566;50.930;5.328;2024-02-04T12:04:45;5.80;;;3.10;;
41883;SDS011;27566;50.930;5.328;2024-02-04T12:07:15;7.82;;;3.33;;
41883;SDS011;27566;50.930;5.328;2024-02-04T12:09:42;6.65;;;2.72;;
41883;SDS011;27566;50.930;5.328;2024-02-04T12:12:09;5.35;;;2.30;;
41883;SDS011;27566;50.930;5.328;2024-02-04T12:14:35;6.20;;;2.90;;
41883;SDS011;27566;50.930;5.328;2024-02-04T12:17:09;10.32;;;3.47;;
41883;SDS011;27566;50.930;5.328;2024-02-04T12:19:36;7.78;;;2.53;;
41883;SDS011;27566;50.930;5.328;2024-02-04T12:22:05;4.78;;;2.42;;
41883;SDS011;27566;50.930;5.328;2024-02-04T12:24:37;5.30;;;2.67;;
41883;SDS011;27566;50.930;5.328;2024-02-04T12:27:04;5.20;;;2.60;;
41883;SDS011;27566;50.930;5.328;2024-02-04T12:29:30;7.30;;;3.10;;
41883;SDS011;27566;50.930;5.328;2024-02-04T12:32:00;4.75;;;2.72;;
41883;SDS011;27566;50.930;5.328;2024-02-04T12:34:28;11.70;;;4.57;;
41883;SDS011;27566;50.930;5.328;2024-02-04T12:36:58;5.63;;;2.60;;
41883;SDS011;27566;50.930;5.328;2024-02-04T12:39:25;6.95;;;3.65;;
41883;SDS011;27566;50.930;5.328;2024-02-04T12:41:51;6.32;;;2.42;;
41883;SDS011;27566;50.930;5.328;2024-02-04T12:44:17;5.18;;;3.22;;
41883;SDS011;27566;50.930;5.328;2024-02-04T12:46:44;5.88;;;2.80;;
41883;SDS011;27566;50.930;5.328;2024-02-04T12:49:10;10.13;;;3.80;;
41883;SDS011;27566;50.930;5.328;2024-02-04T12:51:42;6.30;;;3.13;;
41883;SDS011;27566;50.930;5.328;2024-02-04T12:54:09;6.10;;;2.75;;
41883;SDS011;27566;50.930;5.328;2024-02-04T12:56:43;4.07;;;2.42;;
41883;SDS011;27566;50.930;5.328;2024-02-04T12:59:11;6.68;;;2.95;;
41883;SDS011;27566;50.930;5.328;2024-02-04T13:01:51;7.32;;;2.95;;
41883;SDS011;27566;50.930;5.328;2024-02-04T13:04:23;4.60;;;2.63;;
41883;SDS011;27566;50.930;5.328;2024-02-04T13:06:50;7.97;;;3.35;;
41883;SDS011;27566;50.930;5.328;2024-02-04T13:09:16;5.88;;;2.35;;
41883;SDS011;27566;50.930;5.328;2024-02-04T13:11:43;6.38;;;2.85;;
41883;SDS011;27566;50.930;5.328;2024-02-04T13:14:09;7.70;;;2.83;;
41883;SDS011;27566;50.930;5.328;2024-02-04T13:16:37;5.10;;;2.33;;
41883;SDS011;27566;50.930;5.328;2024-02-04T13:19:03;4.00;;;2.40;;
41883;SDS011;27566;50.930;5.328;2024-02-04T13:21:30;7.72;;;3.10;;
41883;SDS011;27566;50.930;5.328;2024-02-04T13:23:56;9.25;;;3.25;;
41883;SDS011;27566;50.930;5.328;2024-02-04T13:26:22;8.27;;;2.95;;
41883;SDS011;27566;50.930;5.328;2024-02-04T13:28:48;5.28;;;2.47;;
41883;SDS011;27566;50.930;5.328;2024-02-04T13:31:14;5.28;;;3.00;;
41883;SDS011;27566;50.930;5.328;2024-02-04T13:33:40;4.22;;;2.28;;
41883;SDS011;27566;50.930;5.328;2024-02-04T13:36:07;7.05;;;2.85;;
41883;SDS011;27566;50.930;5.328;2024-02-04T13:38:36;8.10;;;2.97;;
41883;SDS011;27566;50.930;5.328;2024-02-04T13:41:02;6.40;;;2.72;;
41883;SDS011;27566;50.930;5.328;2024-02-04T13:43:31;4.97;;;2.35;;
41883;SDS011;27566;50.930;5.328;2024-02-04T13:45:56;7.85;;;2.78;;
41883;SDS011;27566;50.930;5.328;2024-02-04T13:48:22;6.32;;;2.88;;
41883;SDS011;27566;50.930;5.328;2024-02-04T13:50:50;6.38;;;2.38;;
41883;SDS011;27566;50.930;5.328;2024-02-04T13:53:16;4.80;;;2.33;;
41883;SDS011;27566;50.930;5.328;2024-02-04T13:55:42;5.30;;;2.33;;
41883;SDS011;27566;50.930;5.328;2024-02-04T13:58:10;6.80;;;2.47;;
41883;SDS011;27566;50.930;5.328;2024-02-04T14:00:36;5.03;;;2.55;;
41883;SDS011;27566;50.930;5.328;2024-02-04T14:03:02;3.63;;;2.33;;
41883;SDS011;27566;50.930;5.328;2024-02-04T14:05:29;4.32;;;2.42;;
41883;SDS011;27566;50.930;5.328;2024-02-04T14:07:55;5.25;;;2.58;;
41883;SDS011;27566;50.930;5.328;2024-02-04T14:10:20;4.95;;;2.40;;
41883;SDS011;27566;50.930;5.328;2024-02-04T14:12:46;3.38;;;2.20;;
41883;SDS011;27566;50.930;5.328;2024-02-04T14:15:12;4.63;;;2.30;;
41883;SDS011;27566;50.930;5.328;2024-02-04T14:17:39;6.85;;;3.05;;
41883;SDS011;27566;50.930;5.328;2024-02-04T14:20:06;4.47;;;2.40;;
41883;SDS011;27566;50.930;5.328;2024-02-04T14:22:32;3.65;;;2.10;;
41883;SDS011;27566;50.930;5.328;2024-02-04T14:24:58;4.57;;;2.38;;
41883;SDS011;27566;50.930;5.328;2024-02-04T14:27:25;4.75;;;2.35;;
41883;SDS011;27566;50.930;5.328;2024-02-04T14:29:50;6.43;;;2.95;;
41883;SDS011;27566;50.930;5.328;2024-02-04T14:32:16;5.68;;;2.58;;
41883;SDS011;27566;50.930;5.328;2024-02-04T14:34:43;4.78;;;2.60;;
41883;SDS011;27566;50.930;5.328;2024-02-04T14:37:10;5.35;;;2.67;;
41883;SDS011;27566;50.930;5.328;2024-02-04T14:39:37;4.03;;;2.53;;
41883;SDS011;27566;50.930;5.328;2024-02-04T14:42:03;3.60;;;1.95;;
41883;SDS011;27566;50.930;5.328;2024-02-04T14:44:28;10.23;;;2.60;;
41883;SDS011;27566;50.930;5.328;2024-02-04T14:46:55;4.35;;;1.95;;
41883;SDS011;27566;50.930;5.328;2024-02-04T14:49:20;3.97;;;1.90;;
41883;SDS011;27566;50.930;5.328;2024-02-04T14:51:46;4.00;;;2.38;;
41883;SDS011;27566;50.930;5.328;2024-02-04T14:54:12;4.72;;;2.40;;